sensor_id;sensor_type;location;lat;lon;timestamp;P1;durP1;ratioP1;P2;durP2;ratioP2
23826;SDS011;12094;50.822;4.376;2022-11-15T00:02:33;34.28;;;21.30;;
23826;SDS011;12094;50.822;4.376;2022-11-15T00:05:19;31.83;;;21.52;;
23826;SDS011;12094;50.822;4.376;2022-11-15T00:08:05;37.38;;;22.45;;
23826;SDS011;12094;50.822;4.376;2022-11-15T00:10:54;30.88;;;21.13;;
23826;SDS011;12094;50.822;4.376;2022-11-15T00:13:42;37.05;;;22.80;;
23826;SDS011;12094;50.822;4.376;2022-11-15T00:16:28;35.05;;;21.50;;
23826;SDS011;12094;50.822;4.376;2022-11-15T00:19:14;35.95;;;22.95;;
23826;SDS011;12094;50.822;4.376;2022-11-15T00:22:00;38.15;;;22.63;;
23826;SDS011;12094;50.822;4.376;2022-11-15T00:24:45;35.08;;;22.58;;
23826;SDS011;12094;50.822;4.376;2022-11-15T00:27:31;38.35;;;24.75;;
23826;SDS011;12094;50.822;4.376;2022-11-15T00:30:17;37.20;;;24.27;;
23826;SDS011;12094;50.822;4.376;2022-11-15T00:33:05;43.70;;;24.85;;
23826;SDS011;12094;50.822;4.376;2022-11-15T00:35:51;46.15;;;26.83;;
23826;SDS011;12094;50.822;4.376;2022-11-15T00:38:38;36.92;;;25.63;;
23826;SDS011;12094;50.822;4.376;2022-11-15T00:41:26;43.05;;;24.52;;
23826;SDS011;12094;50.822;4.376;2022-11-15T00:44:12;35.10;;;19.52;;
23826;SDS011;12094;50.822;4.376;2022-11-15T00:46:58;34.63;;;23.63;;
23826;SDS011;12094;50.822;4.376;2022-11-15T00:49:43;40.38;;;23.13;;
23826;SDS011;12094;50.822;4.376;2022-11-15T00:52:29;43.38;;;23.52;;
23826;SDS011;12094;50.822;4.376;2022-11-15T00:55:15;42.83;;;25.42;;
23826;SDS011;12094;50.822;4.376;2022-11-15T00:58:05;47.38;;;26.73;;
23826;SDS011;12094;50.822;4.376;2022-11-15T01:00:50;45.67;;;27.58;;
23826;SDS011;12094;50.822;4.376;2022-11-15T01:03:38;47.75;;;28.15;;
23826;SDS011;12094;50.822;4.376;2022-11-15T01:06:25;46.65;;;28.35;;
23826;SDS011;12094;50.822;4.376;2022-11-15T01:09:11;46.17;;;27.33;;
23826;SDS011;12094;50.822;4.376;2022-11-15T01:11:58;44.97;;;29.13;;
23826;SDS011;12094;50.822;4.376;2022-11-15T01:14:45;50.88;;;29.30;;
23826;SDS011;12094;50.822;4.376;2022-11-15T01:17:31;43.60;;;28.20;;
23826;SDS011;12094;50.822;4.376;2022-11-15T01:20:18;45.28;;;27.92;;
23826;SDS011;12094;50.822;4.376;2022-11-15T01:23:04;46.63;;;27.00;;
23826;SDS011;12094;50.822;4.376;2022-11-15T01:25:50;47.30;;;28.33;;
23826;SDS011;12094;50.822;4.376;2022-11-15T01:28:36;44.10;;;26.08;;
23826;SDS011;12094;50.822;4.376;2022-11-15T01:31:23;42.50;;;26.38;;
23826;SDS011;12094;50.822;4.376;2022-11-15T01:34:10;44.45;;;27.08;;
23826;SDS011;12094;50.822;4.376;2022-11-15T01:36:55;37.85;;;24.38;;
23826;SDS011;12094;50.822;4.376;2022-11-15T01:39:40;40.72;;;24.20;;
23826;SDS011;12094;50.822;4.376;2022-11-15T01:42:26;39.17;;;22.88;;
23826;SDS011;12094;50.822;4.376;2022-11-15T01:45:15;32.85;;;22.88;;
23826;SDS011;12094;50.822;4.376;2022-11-15T01:48:01;31.25;;;21.05;;
23826;SDS011;12094;50.822;4.376;2022-11-15T01:50:49;33.53;;;19.98;;
23826;SDS011;12094;50.822;4.376;2022-11-15T01:53:36;35.22;;;22.15;;
23826;SDS011;12094;50.822;4.376;2022-11-15T01:56:25;34.72;;;21.20;;
23826;SDS011;12094;50.822;4.376;2022-11-15T01:59:14;33.28;;;21.00;;
23826;SDS011;12094;50.822;4.376;2022-11-15T02:02:00;31.77;;;20.00;;
23826;SDS011;12094;50.822;4.376;2022-11-15T02:04:46;29.65;;;19.52;;
23826;SDS011;12094;50.822;4.376;2022-11-15T02:07:32;33.60;;;19.00;;
23826;SDS011;12094;50.822;4.376;2022-11-15T02:10:21;31.45;;;20.42;;
23826;SDS011;12094;50.822;4.376;2022-11-15T02:13:08;32.22;;;20.23;;
23826;SDS011;12094;50.822;4.376;2022-11-15T02:16:43;30.63;;;20.95;;
23826;SDS011;12094;50.822;4.376;2022-11-15T02:28:48;28.35;;;18.70;;
23826;SDS011;12094;50.822;4.376;2022-11-15T02:32:02;37.25;;;19.75;;
23826;SDS011;12094;50.822;4.376;2022-11-15T02:35:08;29.25;;;19.02;;
23826;SDS011;12094;50.822;4.376;2022-11-15T02:40:52;28.20;;;18.77;;
23826;SDS011;12094;50.822;4.376;2022-11-15T02:43:51;29.77;;;18.63;;
23826;SDS011;12094;50.822;4.376;2022-11-15T02:46:46;36.30;;;19.00;;
23826;SDS011;12094;50.822;4.376;2022-11-15T02:49:58;30.55;;;17.17;;
23826;SDS011;12094;50.822;4.376;2022-11-15T02:52:54;34.42;;;17.85;;
23826;SDS011;12094;50.822;4.376;2022-11-15T02:55:41;29.23;;;16.08;;
23826;SDS011;12094;50.822;4.376;2022-11-15T03:02:04;26.30;;;14.00;;
23826;SDS011;12094;50.822;4.376;2022-11-15T03:11:14;22.80;;;14.60;;
23826;SDS011;12094;50.822;4.376;2022-11-15T03:14:19;28.50;;;15.07;;
23826;SDS011;12094;50.822;4.376;2022-11-15T03:17:19;21.00;;;12.50;;
23826;SDS011;12094;50.822;4.376;2022-11-15T03:20:12;24.38;;;14.30;;
23826;SDS011;12094;50.822;4.376;2022-11-15T03:23:01;26.02;;;14.68;;
23826;SDS011;12094;50.822;4.376;2022-11-15T03:25:50;24.65;;;11.52;;
23826;SDS011;12094;50.822;4.376;2022-11-15T03:28:41;19.77;;;9.68;;
23826;SDS011;12094;50.822;4.376;2022-11-15T03:31:42;22.35;;;11.27;;
23826;SDS011;12094;50.822;4.376;2022-11-15T03:34:39;19.98;;;11.65;;
23826;SDS011;12094;50.822;4.376;2022-11-15T03:37:31;20.92;;;10.68;;
23826;SDS011;12094;50.822;4.376;2022-11-15T03:40:25;17.90;;;9.73;;
23826;SDS011;12094;50.822;4.376;2022-11-15T03:46:32;13.23;;;8.10;;
23826;SDS011;12094;50.822;4.376;2022-11-15T03:49:46;15.18;;;9.45;;
23826;SDS011;12094;50.822;4.376;2022-11-15T03:52:38;18.90;;;9.70;;
23826;SDS011;12094;50.822;4.376;2022-11-15T03:55:25;21.08;;;9.32;;
23826;SDS011;12094;50.822;4.376;2022-11-15T03:58:12;17.17;;;9.27;;
23826;SDS011;12094;50.822;4.376;2022-11-15T04:00:58;16.95;;;8.70;;
23826;SDS011;12094;50.822;4.376;2022-11-15T04:03:44;12.20;;;8.60;;
23826;SDS011;12094;50.822;4.376;2022-11-15T04:06:30;14.65;;;8.20;;
23826;SDS011;12094;50.822;4.376;2022-11-15T04:09:15;15.02;;;8.43;;
23826;SDS011;12094;50.822;4.376;2022-11-15T04:12:01;12.80;;;8.32;;
23826;SDS011;12094;50.822;4.376;2022-11-15T04:14:46;12.77;;;8.32;;
23826;SDS011;12094;50.822;4.376;2022-11-15T04:17:53;14.95;;;8.40;;
23826;SDS011;12094;50.822;4.376;2022-11-15T04:20:40;15.52;;;8.55;;
23826;SDS011;12094;50.822;4.376;2022-11-15T04:23:44;17.98;;;9.48;;
23826;SDS011;12094;50.822;4.376;2022-11-15T04:26:48;14.30;;;7.93;;
23826;SDS011;12094;50.822;4.376;2022-11-15T04:29:34;17.13;;;8.40;;
23826;SDS011;12094;50.822;4.376;2022-11-15T04:32:20;14.73;;;8.43;;
23826;SDS011;12094;50.822;4.376;2022-11-15T04:35:06;13.98;;;7.32;;
23826;SDS011;12094;50.822;4.376;2022-11-15T04:37:52;14.73;;;8.13;;
23826;SDS011;12094;50.822;4.376;2022-11-15T04:40:38;13.52;;;6.97;;
23826;SDS011;12094;50.822;4.376;2022-11-15T04:43:25;20.33;;;8.20;;
23826;SDS011;12094;50.822;4.376;2022-11-15T04:46:11;14.13;;;7.32;;
23826;SDS011;12094;50.822;4.376;2022-11-15T04:48:56;14.35;;;7.38;;
23826;SDS011;12094;50.822;4.376;2022-11-15T04:51:43;15.35;;;7.43;;
23826;SDS011;12094;50.822;4.376;2022-11-15T04:54:29;12.63;;;6.53;;
23826;SDS011;12094;50.822;4.376;2022-11-15T04:57:16;13.65;;;7.28;;
23826;SDS011;12094;50.822;4.376;2022-11-15T05:00:06;13.45;;;6.95;;
23826;SDS011;12094;50.822;4.376;2022-11-15T05:02:54;13.60;;;6.22;;
23826;SDS011;12094;50.822;4.376;2022-11-15T05:05:59;11.93;;;6.57;;
23826;SDS011;12094;50.822;4.376;2022-11-15T05:08:44;13.02;;;7.03;;
23826;SDS011;12094;50.822;4.376;2022-11-15T05:11:30;10.38;;;5.78;;
23826;SDS011;12094;50.822;4.376;2022-11-15T05:14:16;10.73;;;5.63;;
23826;SDS011;12094;50.822;4.376;2022-11-15T05:17:02;15.32;;;5.82;;
23826;SDS011;12094;50.822;4.376;2022-11-15T05:19:48;12.95;;;6.15;;
23826;SDS011;12094;50.822;4.376;2022-11-15T05:22:34;12.50;;;5.55;;
23826;SDS011;12094;50.822;4.376;2022-11-15T05:25:21;11.95;;;5.60;;
23826;SDS011;12094;50.822;4.376;2022-11-15T05:28:07;14.95;;;5.97;;
23826;SDS011;12094;50.822;4.376;2022-11-15T05:30:53;12.18;;;5.70;;
23826;SDS011;12094;50.822;4.376;2022-11-15T05:33:44;9.38;;;5.72;;
23826;SDS011;12094;50.822;4.376;2022-11-15T05:36:34;11.10;;;4.78;;
23826;SDS011;12094;50.822;4.376;2022-11-15T05:39:22;13.93;;;4.67;;
23826;SDS011;12094;50.822;4.376;2022-11-15T05:42:11;13.35;;;5.30;;
23826;SDS011;12094;50.822;4.376;2022-11-15T05:44:58;14.10;;;5.18;;
23826;SDS011;12094;50.822;4.376;2022-11-15T05:47:46;14.88;;;5.65;;
23826;SDS011;12094;50.822;4.376;2022-11-15T05:50:34;15.05;;;5.68;;
23826;SDS011;12094;50.822;4.376;2022-11-15T05:53:22;13.88;;;5.85;;
23826;SDS011;12094;50.822;4.376;2022-11-15T05:56:09;17.35;;;5.88;;
23826;SDS011;12094;50.822;4.376;2022-11-15T05:58:56;10.88;;;6.10;;
23826;SDS011;12094;50.822;4.376;2022-11-15T06:01:44;14.15;;;5.63;;
23826;SDS011;12094;50.822;4.376;2022-11-15T06:04:30;14.70;;;5.85;;
23826;SDS011;12094;50.822;4.376;2022-11-15T06:07:16;10.32;;;5.05;;
23826;SDS011;12094;50.822;4.376;2022-11-15T06:10:03;20.83;;;5.65;;
23826;SDS011;12094;50.822;4.376;2022-11-15T06:12:56;15.77;;;6.00;;
23826;SDS011;12094;50.822;4.376;2022-11-15T06:15:46;13.70;;;5.00;;
23826;SDS011;12094;50.822;4.376;2022-11-15T06:18:32;11.20;;;5.03;;
23826;SDS011;12094;50.822;4.376;2022-11-15T06:21:20;7.28;;;3.92;;
23826;SDS011;12094;50.822;4.376;2022-11-15T06:24:06;15.88;;;4.90;;
23826;SDS011;12094;50.822;4.376;2022-11-15T06:26:52;11.63;;;4.90;;
23826;SDS011;12094;50.822;4.376;2022-11-15T06:29:40;11.48;;;4.63;;
23826;SDS011;12094;50.822;4.376;2022-11-15T06:32:26;12.00;;;4.63;;
23826;SDS011;12094;50.822;4.376;2022-11-15T06:35:13;10.75;;;4.90;;
23826;SDS011;12094;50.822;4.376;2022-11-15T06:40:54;11.95;;;5.03;;
23826;SDS011;12094;50.822;4.376;2022-11-15T06:43:40;11.85;;;4.97;;
23826;SDS011;12094;50.822;4.376;2022-11-15T06:46:25;11.98;;;5.20;;
23826;SDS011;12094;50.822;4.376;2022-11-15T06:49:11;12.73;;;5.35;;
23826;SDS011;12094;50.822;4.376;2022-11-15T06:51:57;15.45;;;5.45;;
23826;SDS011;12094;50.822;4.376;2022-11-15T06:54:42;7.38;;;4.47;;
23826;SDS011;12094;50.822;4.376;2022-11-15T06:57:28;13.40;;;5.20;;
23826;SDS011;12094;50.822;4.376;2022-11-15T07:00:13;14.38;;;4.75;;
23826;SDS011;12094;50.822;4.376;2022-11-15T07:03:02;10.45;;;4.88;;
23826;SDS011;12094;50.822;4.376;2022-11-15T07:05:53;13.27;;;5.75;;
23826;SDS011;12094;50.822;4.376;2022-11-15T07:08:39;10.68;;;4.82;;
23826;SDS011;12094;50.822;4.376;2022-11-15T07:11:26;9.75;;;4.88;;
23826;SDS011;12094;50.822;4.376;2022-11-15T07:14:12;12.23;;;4.72;;
23826;SDS011;12094;50.822;4.376;2022-11-15T07:16:58;8.15;;;3.97;;
23826;SDS011;12094;50.822;4.376;2022-11-15T07:19:44;12.63;;;5.45;;
23826;SDS011;12094;50.822;4.376;2022-11-15T07:22:33;15.02;;;4.90;;
23826;SDS011;12094;50.822;4.376;2022-11-15T07:25:18;11.73;;;4.80;;
23826;SDS011;12094;50.822;4.376;2022-11-15T07:28:06;12.65;;;5.00;;
23826;SDS011;12094;50.822;4.376;2022-11-15T07:30:52;9.32;;;5.07;;
23826;SDS011;12094;50.822;4.376;2022-11-15T07:33:38;10.82;;;4.78;;
23826;SDS011;12094;50.822;4.376;2022-11-15T07:36:25;11.45;;;5.03;;
23826;SDS011;12094;50.822;4.376;2022-11-15T07:39:10;9.50;;;4.90;;
23826;SDS011;12094;50.822;4.376;2022-11-15T07:41:57;16.13;;;5.25;;
23826;SDS011;12094;50.822;4.376;2022-11-15T07:45:01;10.75;;;4.93;;
23826;SDS011;12094;50.822;4.376;2022-11-15T07:47:47;13.38;;;4.97;;
23826;SDS011;12094;50.822;4.376;2022-11-15T07:50:40;14.23;;;4.88;;
23826;SDS011;12094;50.822;4.376;2022-11-15T07:53:29;13.30;;;4.63;;
23826;SDS011;12094;50.822;4.376;2022-11-15T07:56:16;10.98;;;4.70;;
23826;SDS011;12094;50.822;4.376;2022-11-15T07:59:03;12.07;;;4.80;;
23826;SDS011;12094;50.822;4.376;2022-11-15T08:01:51;11.65;;;5.22;;
23826;SDS011;12094;50.822;4.376;2022-11-15T08:04:37;7.38;;;4.53;;
23826;SDS011;12094;50.822;4.376;2022-11-15T08:07:23;11.50;;;4.60;;
23826;SDS011;12094;50.822;4.376;2022-11-15T08:10:08;9.75;;;4.47;;
23826;SDS011;12094;50.822;4.376;2022-11-15T08:13:02;12.10;;;5.30;;
23826;SDS011;12094;50.822;4.376;2022-11-15T08:15:52;7.70;;;4.53;;
23826;SDS011;12094;50.822;4.376;2022-11-15T08:18:42;11.55;;;4.13;;
23826;SDS011;12094;50.822;4.376;2022-11-15T08:21:31;9.68;;;4.10;;
23826;SDS011;12094;50.822;4.376;2022-11-15T08:24:16;9.48;;;4.45;;
23826;SDS011;12094;50.822;4.376;2022-11-15T08:27:02;9.93;;;4.00;;
23826;SDS011;12094;50.822;4.376;2022-11-15T08:29:48;13.70;;;3.30;;
23826;SDS011;12094;50.822;4.376;2022-11-15T08:32:35;9.45;;;3.30;;
23826;SDS011;12094;50.822;4.376;2022-11-15T08:35:21;9.00;;;2.83;;
23826;SDS011;12094;50.822;4.376;2022-11-15T08:38:12;10.75;;;3.30;;
23826;SDS011;12094;50.822;4.376;2022-11-15T08:41:00;11.60;;;2.92;;
23826;SDS011;12094;50.822;4.376;2022-11-15T08:43:47;6.32;;;2.60;;
23826;SDS011;12094;50.822;4.376;2022-11-15T08:46:34;5.88;;;2.47;;
23826;SDS011;12094;50.822;4.376;2022-11-15T08:49:19;9.70;;;2.67;;
23826;SDS011;12094;50.822;4.376;2022-11-15T08:52:05;8.15;;;2.55;;
23826;SDS011;12094;50.822;4.376;2022-11-15T08:54:52;4.95;;;2.25;;
23826;SDS011;12094;50.822;4.376;2022-11-15T08:57:38;6.40;;;2.65;;
23826;SDS011;12094;50.822;4.376;2022-11-15T09:00:23;8.40;;;2.85;;
23826;SDS011;12094;50.822;4.376;2022-11-15T09:03:09;7.05;;;2.33;;
23826;SDS011;12094;50.822;4.376;2022-11-15T09:05:59;7.82;;;2.92;;
23826;SDS011;12094;50.822;4.376;2022-11-15T09:08:45;9.98;;;3.17;;
23826;SDS011;12094;50.822;4.376;2022-11-15T09:11:32;7.00;;;2.10;;
23826;SDS011;12094;50.822;4.376;2022-11-15T09:14:18;7.63;;;2.95;;
23826;SDS011;12094;50.822;4.376;2022-11-15T09:17:03;11.73;;;2.13;;
23826;SDS011;12094;50.822;4.376;2022-11-15T09:19:52;7.35;;;1.80;;
23826;SDS011;12094;50.822;4.376;2022-11-15T09:22:40;7.60;;;1.88;;
23826;SDS011;12094;50.822;4.376;2022-11-15T09:25:25;5.03;;;2.13;;
23826;SDS011;12094;50.822;4.376;2022-11-15T09:28:11;9.75;;;2.33;;
23826;SDS011;12094;50.822;4.376;2022-11-15T09:30:57;5.65;;;2.13;;
23826;SDS011;12094;50.822;4.376;2022-11-15T09:33:44;6.82;;;1.95;;
23826;SDS011;12094;50.822;4.376;2022-11-15T09:36:30;8.40;;;2.63;;
23826;SDS011;12094;50.822;4.376;2022-11-15T09:39:16;7.80;;;1.70;;
23826;SDS011;12094;50.822;4.376;2022-11-15T09:50:39;9.70;;;1.80;;
23826;SDS011;12094;50.822;4.376;2022-11-15T09:53:14;8.68;;;2.00;;
23826;SDS011;12094;50.822;4.376;2022-11-15T09:56:22;12.60;;;2.10;;
23826;SDS011;12094;50.822;4.376;2022-11-15T09:59:01;11.35;;;2.60;;
23826;SDS011;12094;50.822;4.376;2022-11-15T10:04:17;9.90;;;2.00;;
23826;SDS011;12094;50.822;4.376;2022-11-15T10:07:48;6.40;;;1.35;;
23826;SDS011;12094;50.822;4.376;2022-11-15T10:09:49;2.92;;;1.13;;
23826;SDS011;12094;50.822;4.376;2022-11-15T10:12:20;6.20;;;1.30;;
23826;SDS011;12094;50.822;4.376;2022-11-15T10:14:47;11.63;;;1.70;;
23826;SDS011;12094;50.822;4.376;2022-11-15T10:22:47;8.23;;;1.50;;
23826;SDS011;12094;50.822;4.376;2022-11-15T10:25:21;7.15;;;1.75;;
23826;SDS011;12094;50.822;4.376;2022-11-15T10:28:09;10.38;;;1.83;;
23826;SDS011;12094;50.822;4.376;2022-11-15T10:30:41;13.25;;;2.00;;
23826;SDS011;12094;50.822;4.376;2022-11-15T10:35:45;14.63;;;1.70;;
23826;SDS011;12094;50.822;4.376;2022-11-15T10:38:13;9.30;;;1.88;;
23826;SDS011;12094;50.822;4.376;2022-11-15T10:40:40;6.72;;;1.42;;
23826;SDS011;12094;50.822;4.376;2022-11-15T10:45:36;10.90;;;1.58;;
23826;SDS011;12094;50.822;4.376;2022-11-15T10:50:42;10.80;;;1.60;;
23826;SDS011;12094;50.822;4.376;2022-11-15T10:53:32;9.20;;;1.70;;
23826;SDS011;12094;50.822;4.376;2022-11-15T10:56:07;6.32;;;1.10;;
23826;SDS011;12094;50.822;4.376;2022-11-15T11:01:11;6.20;;;1.30;;
23826;SDS011;12094;50.822;4.376;2022-11-15T11:03:43;7.90;;;1.20;;
23826;SDS011;12094;50.822;4.376;2022-11-15T11:06:17;7.95;;;1.58;;
23826;SDS011;12094;50.822;4.376;2022-11-15T11:09:00;11.35;;;1.83;;
23826;SDS011;12094;50.822;4.376;2022-11-15T11:11:45;9.10;;;1.50;;
23826;SDS011;12094;50.822;4.376;2022-11-15T11:14:28;7.95;;;1.85;;
23826;SDS011;12094;50.822;4.376;2022-11-15T11:19:39;5.15;;;1.40;;
23826;SDS011;12094;50.822;4.376;2022-11-15T11:22:49;10.18;;;1.48;;
23826;SDS011;12094;50.822;4.376;2022-11-15T11:31:34;11.18;;;2.72;;
23826;SDS011;12094;50.822;4.376;2022-11-15T11:33:50;7.63;;;1.27;;
23826;SDS011;12094;50.822;4.376;2022-11-15T11:51:36;9.55;;;1.40;;
23826;SDS011;12094;50.822;4.376;2022-11-15T11:54:20;15.13;;;2.28;;
23826;SDS011;12094;50.822;4.376;2022-11-15T11:56:50;5.13;;;1.20;;
23826;SDS011;12094;50.822;4.376;2022-11-15T11:59:21;10.30;;;1.77;;
23826;SDS011;12094;50.822;4.376;2022-11-15T12:02:16;8.27;;;1.58;;
23826;SDS011;12094;50.822;4.376;2022-11-15T12:04:51;8.30;;;1.75;;
23826;SDS011;12094;50.822;4.376;2022-11-15T12:07:25;7.38;;;1.30;;
23826;SDS011;12094;50.822;4.376;2022-11-15T12:09:58;7.75;;;1.42;;
23826;SDS011;12094;50.822;4.376;2022-11-15T12:12:38;7.10;;;1.30;;
23826;SDS011;12094;50.822;4.376;2022-11-15T12:15:14;6.78;;;1.50;;
23826;SDS011;12094;50.822;4.376;2022-11-15T12:17:44;7.60;;;1.50;;
23826;SDS011;12094;50.822;4.376;2022-11-15T12:20:20;7.63;;;1.33;;
23826;SDS011;12094;50.822;4.376;2022-11-15T12:22:55;4.85;;;1.45;;
23826;SDS011;12094;50.822;4.376;2022-11-15T12:25:29;4.70;;;1.10;;
23826;SDS011;12094;50.822;4.376;2022-11-15T12:28:15;4.70;;;1.33;;
23826;SDS011;12094;50.822;4.376;2022-11-15T12:40:15;4.80;;;1.15;;
23826;SDS011;12094;50.822;4.376;2022-11-15T12:43:02;9.95;;;1.75;;
23826;SDS011;12094;50.822;4.376;2022-11-15T12:58:54;4.43;;;1.25;;
23826;SDS011;12094;50.822;4.376;2022-11-15T13:06:53;4.28;;;1.40;;
23826;SDS011;12094;50.822;4.376;2022-11-15T13:17:44;6.72;;;1.35;;
23826;SDS011;12094;50.822;4.376;2022-11-15T13:20:21;4.32;;;1.15;;
23826;SDS011;12094;50.822;4.376;2022-11-15T13:23:00;4.15;;;1.20;;
23826;SDS011;12094;50.822;4.376;2022-11-15T13:33:47;5.45;;;1.10;;
23826;SDS011;12094;50.822;4.376;2022-11-15T13:36:15;3.28;;;1.20;;
23826;SDS011;12094;50.822;4.376;2022-11-15T13:39:49;5.22;;;1.35;;
23826;SDS011;12094;50.822;4.376;2022-11-15T13:41:59;6.68;;;1.45;;
23826;SDS011;12094;50.822;4.376;2022-11-15T13:44:30;3.50;;;1.20;;
23826;SDS011;12094;50.822;4.376;2022-11-15T13:49:42;4.85;;;1.55;;
23826;SDS011;12094;50.822;4.376;2022-11-15T13:52:15;4.10;;;1.25;;
23826;SDS011;12094;50.822;4.376;2022-11-15T13:57:23;6.15;;;1.50;;
23826;SDS011;12094;50.822;4.376;2022-11-15T13:59:57;4.22;;;1.20;;
23826;SDS011;12094;50.822;4.376;2022-11-15T14:02:39;2.80;;;1.15;;
23826;SDS011;12094;50.822;4.376;2022-11-15T14:05:39;4.15;;;1.40;;
23826;SDS011;12094;50.822;4.376;2022-11-15T14:10:39;8.20;;;1.45;;
23826;SDS011;12094;50.822;4.376;2022-11-15T14:13:26;5.43;;;1.27;;
23826;SDS011;12094;50.822;4.376;2022-11-15T14:15:54;4.50;;;1.30;;
23826;SDS011;12094;50.822;4.376;2022-11-15T14:18:40;5.18;;;1.55;;
23826;SDS011;12094;50.822;4.376;2022-11-15T14:21:12;7.88;;;1.50;;
23826;SDS011;12094;50.822;4.376;2022-11-15T14:23:39;3.38;;;1.17;;
23826;SDS011;12094;50.822;4.376;2022-11-15T14:26:11;4.80;;;1.40;;
23826;SDS011;12094;50.822;4.376;2022-11-15T14:28:53;4.30;;;1.52;;
23826;SDS011;12094;50.822;4.376;2022-11-15T14:31:20;6.95;;;1.38;;
23826;SDS011;12094;50.822;4.376;2022-11-15T14:33:48;3.35;;;1.42;;
23826;SDS011;12094;50.822;4.376;2022-11-15T14:36:16;4.22;;;1.65;;
23826;SDS011;12094;50.822;4.376;2022-11-15T14:38:44;3.47;;;1.60;;
23826;SDS011;12094;50.822;4.376;2022-11-15T14:41:19;3.65;;;1.23;;
23826;SDS011;12094;50.822;4.376;2022-11-15T14:43:51;4.38;;;1.75;;
23826;SDS011;12094;50.822;4.376;2022-11-15T14:46:19;3.70;;;1.40;;
23826;SDS011;12094;50.822;4.376;2022-11-15T14:48:46;5.35;;;1.50;;
23826;SDS011;12094;50.822;4.376;2022-11-15T14:51:14;3.60;;;1.50;;
23826;SDS011;12094;50.822;4.376;2022-11-15T14:53:43;3.35;;;1.52;;
23826;SDS011;12094;50.822;4.376;2022-11-15T14:56:12;5.63;;;2.08;;
23826;SDS011;12094;50.822;4.376;2022-11-15T14:58:39;4.07;;;1.70;;
23826;SDS011;12094;50.822;4.376;2022-11-15T15:01:15;2.72;;;1.60;;
23826;SDS011;12094;50.822;4.376;2022-11-15T15:03:47;4.90;;;1.90;;
23826;SDS011;12094;50.822;4.376;2022-11-15T15:06:14;3.88;;;1.60;;
23826;SDS011;12094;50.822;4.376;2022-11-15T15:08:44;5.35;;;1.80;;
23826;SDS011;12094;50.822;4.376;2022-11-15T15:11:21;3.70;;;1.75;;
23826;SDS011;12094;50.822;4.376;2022-11-15T15:13:55;4.25;;;1.60;;
23826;SDS011;12094;50.822;4.376;2022-11-15T15:16:24;3.28;;;1.55;;
23826;SDS011;12094;50.822;4.376;2022-11-15T15:18:52;4.80;;;1.70;;
23826;SDS011;12094;50.822;4.376;2022-11-15T15:21:23;5.00;;;1.85;;
23826;SDS011;12094;50.822;4.376;2022-11-15T15:24:02;4.13;;;1.80;;
23826;SDS011;12094;50.822;4.376;2022-11-15T15:26:29;8.90;;;2.22;;
23826;SDS011;12094;50.822;4.376;2022-11-15T15:28:59;3.05;;;2.00;;
23826;SDS011;12094;50.822;4.376;2022-11-15T15:31:26;2.88;;;1.80;;
23826;SDS011;12094;50.822;4.376;2022-11-15T15:33:53;3.13;;;1.95;;
23826;SDS011;12094;50.822;4.376;2022-11-15T15:36:21;4.47;;;2.25;;
23826;SDS011;12094;50.822;4.376;2022-11-15T15:38:48;5.68;;;2.22;;
23826;SDS011;12094;50.822;4.376;2022-11-15T15:41:15;4.63;;;2.38;;
23826;SDS011;12094;50.822;4.376;2022-11-15T15:43:44;5.80;;;2.22;;
23826;SDS011;12094;50.822;4.376;2022-11-15T15:46:11;3.38;;;2.20;;
23826;SDS011;12094;50.822;4.376;2022-11-15T15:48:41;5.05;;;2.13;;
23826;SDS011;12094;50.822;4.376;2022-11-15T15:51:08;3.75;;;2.22;;
23826;SDS011;12094;50.822;4.376;2022-11-15T15:53:46;4.10;;;2.40;;
23826;SDS011;12094;50.822;4.376;2022-11-15T15:56:15;5.78;;;2.30;;
23826;SDS011;12094;50.822;4.376;2022-11-15T15:58:43;4.35;;;2.00;;
23826;SDS011;12094;50.822;4.376;2022-11-15T16:01:10;3.50;;;2.50;;
23826;SDS011;12094;50.822;4.376;2022-11-15T16:03:37;4.10;;;2.20;;
23826;SDS011;12094;50.822;4.376;2022-11-15T16:06:03;6.18;;;2.60;;
23826;SDS011;12094;50.822;4.376;2022-11-15T16:08:31;3.72;;;2.30;;
23826;SDS011;12094;50.822;4.376;2022-11-15T16:11:18;4.70;;;2.17;;
23826;SDS011;12094;50.822;4.376;2022-11-15T16:13:45;7.30;;;2.97;;
23826;SDS011;12094;50.822;4.376;2022-11-15T16:16:12;4.60;;;2.38;;
23826;SDS011;12094;50.822;4.376;2022-11-15T16:18:40;4.65;;;2.90;;
23826;SDS011;12094;50.822;4.376;2022-11-15T16:21:08;4.95;;;2.58;;
23826;SDS011;12094;50.822;4.376;2022-11-15T16:23:35;9.35;;;2.60;;
23826;SDS011;12094;50.822;4.376;2022-11-15T16:26:02;4.47;;;2.70;;
23826;SDS011;12094;50.822;4.376;2022-11-15T16:28:53;5.05;;;2.72;;
23826;SDS011;12094;50.822;4.376;2022-11-15T16:31:20;3.40;;;2.78;;
23826;SDS011;12094;50.822;4.376;2022-11-15T16:33:48;5.68;;;2.92;;
23826;SDS011;12094;50.822;4.376;2022-11-15T16:36:21;5.38;;;2.58;;
23826;SDS011;12094;50.822;4.376;2022-11-15T16:38:57;4.97;;;2.83;;
23826;SDS011;12094;50.822;4.376;2022-11-15T16:41:26;5.38;;;2.90;;
23826;SDS011;12094;50.822;4.376;2022-11-15T16:43:54;5.28;;;2.80;;
23826;SDS011;12094;50.822;4.376;2022-11-15T16:46:25;3.75;;;2.33;;
23826;SDS011;12094;50.822;4.376;2022-11-15T16:48:53;3.67;;;2.15;;
23826;SDS011;12094;50.822;4.376;2022-11-15T16:51:20;6.30;;;2.80;;
23826;SDS011;12094;50.822;4.376;2022-11-15T16:53:49;4.85;;;2.80;;
23826;SDS011;12094;50.822;4.376;2022-11-15T16:58:45;4.38;;;2.65;;
23826;SDS011;12094;50.822;4.376;2022-11-15T17:01:23;4.43;;;3.00;;
23826;SDS011;12094;50.822;4.376;2022-11-15T17:03:52;5.60;;;2.97;;
23826;SDS011;12094;50.822;4.376;2022-11-15T17:06:20;4.43;;;3.17;;
23826;SDS011;12094;50.822;4.376;2022-11-15T17:08:51;4.90;;;3.00;;
23826;SDS011;12094;50.822;4.376;2022-11-15T17:11:19;4.25;;;3.00;;
23826;SDS011;12094;50.822;4.376;2022-11-15T17:13:47;6.97;;;3.50;;
23826;SDS011;12094;50.822;4.376;2022-11-15T17:16:16;8.65;;;3.65;;
23826;SDS011;12094;50.822;4.376;2022-11-15T17:18:44;7.18;;;3.60;;
23826;SDS011;12094;50.822;4.376;2022-11-15T17:21:16;6.45;;;3.50;;
23826;SDS011;12094;50.822;4.376;2022-11-15T17:23:45;4.28;;;2.95;;
23826;SDS011;12094;50.822;4.376;2022-11-15T17:26:13;8.45;;;3.85;;
23826;SDS011;12094;50.822;4.376;2022-11-15T17:29:01;4.75;;;3.28;;
23826;SDS011;12094;50.822;4.376;2022-11-15T17:31:29;5.82;;;3.65;;
23826;SDS011;12094;50.822;4.376;2022-11-15T17:33:59;5.13;;;3.38;;
23826;SDS011;12094;50.822;4.376;2022-11-15T17:36:28;5.47;;;3.60;;
23826;SDS011;12094;50.822;4.376;2022-11-15T17:38:56;7.13;;;4.30;;
23826;SDS011;12094;50.822;4.376;2022-11-15T17:41:27;4.78;;;3.42;;
23826;SDS011;12094;50.822;4.376;2022-11-15T17:43:57;5.95;;;3.70;;
23826;SDS011;12094;50.822;4.376;2022-11-15T17:46:29;6.22;;;4.03;;
23826;SDS011;12094;50.822;4.376;2022-11-15T17:48:57;5.55;;;4.00;;
23826;SDS011;12094;50.822;4.376;2022-11-15T17:51:26;7.93;;;3.65;;
23826;SDS011;12094;50.822;4.376;2022-11-15T17:53:55;6.47;;;3.80;;
23826;SDS011;12094;50.822;4.376;2022-11-15T17:56:24;5.97;;;4.13;;
23826;SDS011;12094;50.822;4.376;2022-11-15T17:58:53;5.55;;;4.20;;
23826;SDS011;12094;50.822;4.376;2022-11-15T18:04:00;6.05;;;4.47;;
23826;SDS011;12094;50.822;4.376;2022-11-15T18:06:29;6.90;;;4.18;;
23826;SDS011;12094;50.822;4.376;2022-11-15T18:08:58;7.28;;;4.20;;
23826;SDS011;12094;50.822;4.376;2022-11-15T18:11:28;5.05;;;4.10;;
23826;SDS011;12094;50.822;4.376;2022-11-15T18:13:59;6.15;;;4.13;;
23826;SDS011;12094;50.822;4.376;2022-11-15T18:16:28;5.85;;;4.45;;
23826;SDS011;12094;50.822;4.376;2022-11-15T18:18:57;6.20;;;4.10;;
23826;SDS011;12094;50.822;4.376;2022-11-15T18:21:29;5.60;;;4.07;;